Flight Track Log - Related Links

Times and Time Zones

All times are in EDT time to prevent confusion due to time zone crossing. See the SKW6440 flight status page for this flight to view local times or setup timezone preferences in your user account.

Time Position Orientation Groundspeed Altitude Reporting Facility
EDT Latitude Longitude Course Direction KTS MPH feet Rate Location/Type
Sat 12:51:37 PM 42.2081 -83.3528 190° South 152 175 1,200  Level Cleveland Center
Sat 12:52:14 PM 42.1764 -83.3600 190° South 185 213 2,700 2,536 Climbing Cleveland Center
Sat 12:53:14 PM 42.1139 -83.3656 184° South 257 296 5,300 2,394 Climbing Cleveland Center
Sat 12:55:22 PM 42.0667 -83.1536 107° East 355 409 10,200 2,457 Climbing Cleveland Center
Sat 12:56:22 PM 42.0719 -83.0083 87° East 365 420 13,000 3,000 Climbing Cleveland Center
Sat 12:58:22 PM 42.0819 -82.7094 87° East 386 444 19,200 3,033 Climbing Cleveland Center
Sat 12:59:22 PM 42.0847 -82.5639 88° East 391 450 22,100 2,500 Climbing Cleveland Center
Sat 01:00:22 PM 42.0767 -82.4156 94° East 391 450 24,200 2,000 Climbing Cleveland Center
Sat 01:01:22 PM 42.0539 -82.2667 102° East 397 457 26,100 1,700 Climbing Cleveland Center
Sat 01:02:22 PM 42.0289 -82.1094 102° East 410 472 27,600 1,400 Climbing Cleveland Center
Sat 01:03:22 PM 41.9492 -81.9958 133° Southeast 404 465 28,900 700 Climbing Cleveland Center
Sat 01:04:22 PM 41.8481 -81.9017 145° Southeast 418 481 29,000 50 Climbing Cleveland Center
Sat 01:05:22 PM 41.7408 -81.7992 144° Southeast 464 534 29,000  Level Cleveland Center
Sat 01:06:22 PM 41.6336 -81.6944 144° Southeast 477 549 29,000  Level Cleveland Center
Sat 01:07:22 PM 41.5219 -81.5925 146° Southeast 483 556 29,000  Level Cleveland Center
Sat 01:08:22 PM 41.4247 -81.4997 144° Southeast 488 562 29,000  Level Cleveland Center
Sat 01:09:22 PM 41.3172 -81.3958 144° Southeast 483 556 29,000  Level Cleveland Center
Sat 01:10:22 PM 41.1969 -81.2894 146° Southeast 483 556 29,000  Level Cleveland Center
Sat 01:11:22 PM 41.0869 -81.1947 147° Southeast 489 563 29,000  Level Cleveland Center
Sat 01:12:22 PM 40.9642 -81.1494 164° South 469 540 29,000  Level Cleveland Center
Sat 01:13:22 PM 40.8394 -81.1044 165° South 464 534 29,000  Level Cleveland Center
Sat 01:14:22 PM 40.7208 -81.0653 166° South 454 522 29,000  Level Cleveland Center
Sat 01:15:22 PM 40.6186 -81.0261 164° South 440 506 29,000  Level Cleveland Center
Sat 01:16:22 PM 40.5042 -80.9872 166° South 430 495 29,000  Level Cleveland Center
Sat 01:17:22 PM 40.3875 -80.9428 164° South 430 495 29,000  Level Cleveland Center
Sat 01:18:22 PM 40.2731 -80.9069 167° South 430 495 29,000  Level Cleveland Center
Sat 01:19:22 PM 40.1628 -80.8683 165° South 430 495 29,000  Level Cleveland Center
Sat 01:20:22 PM 40.0461 -80.8272 165° South 430 495 29,000  Level Cleveland Center
Sat 01:21:22 PM 39.9628 -80.7078 132° Southeast 424 488 29,000  Level Cleveland Center
Sat 01:22:22 PM 39.8961 -80.5614 121° Southeast 433 498 29,000 -350 Level Cleveland Center
Sat 01:23:22 PM 39.8272 -80.4156 122° Southeast 456 525 28,300 -667 Descending Cleveland Center
Sat 01:25:22 PM 39.6947 -80.1358 122° Southeast 457 526 27,000 -431 Descending Washington Center
Sat 01:26:23 PM 39.6153 -79.9744 123° Southeast 474 545 27,000  Level Washington Center
Sat 01:27:23 PM 39.5558 -79.8256 117° Southeast 474 545 27,000  Level Washington Center
Sat 01:28:22 PM 39.5222 -79.6542 104° East 474 545 27,000 -101 Level Washington Center
Sat 01:29:22 PM 39.4925 -79.4831 103° East 479 551 26,800 -595 Descending Washington Center
Sat 01:30:23 PM 39.4622 -79.3172 103° East 479 551 25,800 -1,041 Descending Washington Center
Sat 01:31:23 PM 39.4336 -79.1653 104° East 479 551 24,700 -1,587 Descending Washington Center
Sat 01:32:24 PM 39.4047 -79.0081 103° East 466 536 22,600 -2,529 Descending Washington Center
Sat 01:33:24 PM 39.3797 -78.8647 103° East 441 507 19,600 -3,254 Descending Washington Center
Sat 01:34:22 PM 39.3542 -78.7267 103° East 407 468 16,200 -3,126 Descending Washington Center
Sat 01:35:23 PM 39.3303 -78.5942 103° East 391 450 13,400 -1,934 Descending Washington Center
Sat 01:36:23 PM 39.3064 -78.4669 104° East 371 427 12,300 -1,190 Descending Washington Center
Sat 01:37:24 PM 39.2758 -78.3506 109° East 359 413 11,000 -655 Descending Washington Center
Sat 01:38:22 PM 39.2300 -78.2575 122° Southeast 325 374 11,000 -559 Level Washington Center
Sat 01:39:22 PM 39.2219 -78.1447 95° East 307 353 9,900 -1,100 Descending Washington Center
Sat 01:40:22 PM 39.2242 -78.0350 88° East 302 348 8,800 -1,091 Descending Washington Center
Sat 01:41:23 PM 39.2264 -77.9253 88° East 297 342 7,700 -1,131 Descending Washington Center
Sat 01:42:24 PM 39.2264 -77.8181 90° East 297 342 6,500 -1,190 Descending Washington Center
Sat 01:43:24 PM 39.2242 -77.7000 91° East 297 342 5,300 -712 Descending Washington Center
Sat 01:44:22 PM 39.2239 -77.5956 90° East 292 336 5,100 -180 Descending Washington Center
Sat 01:45:04 PM 39.2000 -77.5333 116° Southeast 263 303 5,000 -647 Descending Potomac TRACON
Sat 01:46:04 PM 39.1833 -77.4500 104° East 235 270 4,000 -500 Descending Potomac TRACON
Sat 01:47:04 PM 39.1333 -77.4500 180° South 193 222 4,000  Level Potomac TRACON

Login

Don't have an account? Register now (free) for customized features, flight alerts, and more!